createdAt,value
2019-06-08T00:02:27.168Z,15.40
2019-06-08T00:05:07.616Z,15.40
2019-06-08T00:07:48.280Z,15.40
2019-06-08T00:10:29.104Z,15.40
2019-06-08T00:13:09.335Z,15.50
2019-06-08T00:15:50.382Z,15.50
2019-06-08T00:18:31.471Z,15.40
2019-06-08T00:21:13.426Z,15.40
2019-06-08T00:23:54.491Z,15.40
2019-06-08T00:26:35.155Z,15.40
2019-06-08T00:29:16.264Z,15.40
2019-06-08T00:31:57.026Z,15.40
2019-06-08T00:34:37.936Z,15.40
2019-06-08T00:37:18.868Z,15.40
2019-06-08T00:39:59.399Z,15.40
2019-06-08T00:42:40.143Z,15.40
2019-06-08T00:45:21.584Z,15.30
2019-06-08T00:48:02.807Z,15.30
2019-06-08T00:50:43.392Z,15.30
2019-06-08T00:53:25.265Z,15.20
2019-06-08T00:56:06.458Z,15.20
2019-06-08T00:58:47.807Z,15.20
2019-06-08T01:01:28.886Z,15.20
2019-06-08T01:04:09.398Z,15.20
2019-06-08T01:06:50.638Z,15.10
2019-06-08T01:09:31.737Z,15.20
2019-06-08T01:12:12.667Z,15.10
2019-06-08T01:14:53.132Z,15.10
2019-06-08T01:17:33.942Z,15.10
2019-06-08T01:20:14.383Z,15.20
2019-06-08T01:22:54.928Z,15.20
2019-06-08T01:25:35.327Z,15.20
2019-06-08T01:28:15.832Z,15.20
2019-06-08T01:30:56.652Z,15.20
2019-06-08T01:33:37.164Z,15.20
2019-06-08T01:36:17.786Z,15.20
2019-06-08T01:38:58.394Z,15.10
2019-06-08T01:41:38.994Z,15.10
2019-06-08T01:44:19.659Z,15.00
2019-06-08T01:47:00.259Z,15.00
2019-06-08T01:49:41.067Z,15.00
2019-06-08T01:52:22.518Z,14.90
2019-06-08T01:55:03.619Z,14.90
2019-06-08T01:57:43.979Z,14.80
2019-06-08T02:00:39.426Z,14.90
2019-06-08T02:03:06.980Z,14.90
2019-06-08T02:05:47.509Z,14.90
2019-06-08T02:08:28.602Z,14.90
2019-06-08T02:13:59.019Z,15.00
2019-06-08T02:16:39.915Z,15.00
2019-06-08T02:19:21.303Z,15.00
2019-06-08T02:22:02.820Z,15.00
2019-06-08T02:24:44.007Z,15.00
2019-06-08T02:27:25.100Z,15.10
2019-06-08T02:32:55.600Z,15.10
2019-06-08T02:35:37.835Z,15.00
2019-06-08T02:38:18.435Z,15.00
2019-06-08T02:40:59.215Z,15.10
2019-06-08T02:43:42.966Z,15.00
2019-06-08T02:46:23.904Z,15.00
2019-06-08T02:49:05.138Z,15.00
2019-06-08T02:51:46.423Z,15.00
2019-06-08T02:54:27.239Z,15.00
2019-06-08T02:57:07.821Z,15.00
2019-06-08T02:59:48.771Z,15.00
2019-06-08T03:02:29.692Z,15.00
2019-06-08T03:05:10.977Z,14.90
2019-06-08T03:07:51.752Z,14.90
2019-06-08T03:30:28.997Z,14.70
2019-06-08T03:33:09.496Z,14.60
2019-06-08T03:35:57.007Z,14.60
2019-06-08T03:38:33.811Z,14.60
2019-06-08T03:41:14.507Z,14.50
2019-06-08T03:43:54.843Z,14.50
2019-06-08T03:46:36.331Z,14.50
2019-06-08T03:49:17.163Z,14.50
2019-06-08T03:51:57.658Z,14.50
2019-06-08T03:54:38.898Z,14.50
2019-06-08T03:57:20.736Z,14.50
2019-06-08T04:00:01.320Z,14.40
2019-06-08T04:02:44.146Z,14.40
2019-06-08T04:05:24.853Z,14.40
2019-06-08T04:08:05.345Z,14.40
2019-06-08T04:10:46.787Z,14.40
2019-06-08T04:13:27.336Z,14.40
2019-06-08T04:16:07.920Z,14.40
2019-06-08T04:18:44.660Z,14.30
2019-06-08T04:21:33.094Z,14.20
2019-06-08T04:24:20.982Z,14.20
2019-06-08T04:27:08.884Z,14.20
2019-06-08T04:29:56.952Z,14.20
2019-06-08T04:32:45.063Z,14.20
2019-06-08T04:35:34.363Z,14.20
2019-06-08T04:38:22.210Z,14.20
2019-06-08T04:41:10.335Z,14.20
2019-06-08T04:43:59.052Z,14.20
2019-06-08T04:46:47.799Z,14.20
2019-06-08T04:49:29.167Z,14.20
2019-06-08T04:52:10.368Z,14.20
2019-06-08T04:54:50.825Z,14.30
2019-06-08T04:57:31.178Z,14.40
2019-06-08T05:00:13.088Z,14.50
2019-06-08T05:02:54.395Z,14.50
2019-06-08T05:05:34.723Z,14.60
2019-06-08T05:08:15.989Z,14.50
2019-06-08T05:10:57.347Z,14.40
2019-06-08T05:13:39.162Z,14.40
2019-06-08T05:16:20.169Z,14.40
2019-06-08T05:19:00.795Z,14.40
2019-06-08T05:21:41.680Z,14.50
2019-06-08T05:24:22.135Z,14.50
2019-06-08T05:27:02.731Z,14.50
2019-06-08T05:29:43.359Z,14.50
2019-06-08T05:32:24.127Z,14.50
2019-06-08T05:35:04.820Z,14.50
2019-06-08T05:37:45.571Z,14.60
2019-06-08T05:40:26.439Z,14.60
2019-06-08T05:43:07.583Z,14.70
2019-06-08T05:45:48.424Z,14.80
2019-06-08T05:48:29.850Z,14.90
2019-06-08T05:51:10.338Z,15.00
2019-06-08T05:53:51.200Z,15.10
2019-06-08T05:56:31.979Z,15.20
2019-06-08T05:59:12.759Z,15.10
2019-06-08T06:01:53.320Z,15.20
2019-06-08T06:04:33.979Z,15.20
2019-06-08T06:07:14.607Z,15.20
2019-06-08T06:09:55.415Z,15.20
2019-06-08T06:12:36.191Z,15.20
2019-06-08T06:15:16.699Z,15.20
2019-06-08T06:17:57.389Z,15.30
2019-06-08T06:20:38.400Z,15.40
2019-06-08T06:23:18.663Z,15.40
2019-06-08T06:25:59.151Z,15.40
2019-06-08T06:31:21.758Z,15.60
2019-06-08T06:34:02.211Z,15.60
2019-06-08T06:36:43.852Z,15.70
2019-06-08T06:39:24.543Z,15.70
2019-06-08T06:42:05.024Z,15.80
2019-06-08T06:50:13.538Z,15.90
2019-06-08T06:52:57.787Z,15.90
2019-06-08T06:58:23.280Z,15.90
2019-06-08T07:03:48.006Z,16.00
2019-06-08T07:09:14.294Z,16.00
2019-06-08T07:11:56.640Z,16.00
2019-06-08T07:20:09.891Z,16.00
2019-06-08T07:42:29.675Z,16.10
2019-06-08T07:45:10.643Z,16.30
2019-06-08T07:47:51.991Z,16.50
2019-06-08T07:50:32.623Z,16.60
2019-06-08T07:53:13.299Z,16.70
2019-06-08T07:55:54.074Z,16.70
2019-06-08T07:58:34.782Z,16.70
2019-06-08T08:01:15.215Z,16.60
2019-06-08T08:03:56.634Z,16.60
2019-06-08T08:06:37.594Z,16.50
2019-06-08T08:09:18.777Z,16.70
2019-06-08T08:11:59.738Z,17.00
2019-06-08T08:14:40.061Z,17.20
2019-06-08T08:17:20.911Z,17.30
2019-06-08T08:20:01.231Z,17.30
2019-06-08T08:22:41.739Z,17.40
2019-06-08T08:25:22.343Z,17.40
2019-06-08T08:28:02.899Z,17.30
2019-06-08T08:30:43.614Z,17.10
2019-06-08T08:33:24.123Z,16.80
2019-06-08T08:36:04.607Z,16.60
2019-06-08T08:38:47.699Z,16.50
2019-06-08T08:41:27.978Z,16.50
2019-06-08T08:44:08.978Z,16.60
2019-06-08T08:46:51.400Z,16.80
2019-06-08T08:49:32.375Z,17.10
2019-06-08T08:52:13.243Z,17.40
2019-06-08T08:54:54.295Z,17.60
2019-06-08T08:57:35.235Z,17.80
2019-06-08T09:00:18.122Z,18.00
2019-06-08T09:03:13.178Z,18.00
2019-06-08T09:05:41.023Z,18.00
2019-06-08T09:08:23.347Z,17.90
2019-06-08T09:11:04.852Z,17.80
2019-06-08T09:13:48.690Z,17.70
2019-06-08T09:16:28.794Z,17.50
2019-06-08T09:19:09.717Z,17.50
2019-06-08T09:21:52.469Z,17.70
2019-06-08T09:24:32.802Z,17.90
2019-06-08T09:27:13.511Z,18.00
2019-06-08T09:29:54.942Z,18.10
2019-06-08T09:32:38.197Z,18.10
2019-06-08T09:35:21.266Z,18.10
2019-06-08T09:38:03.716Z,18.30
2019-06-08T09:40:43.766Z,18.40
2019-06-08T09:43:24.345Z,18.40
2019-06-08T09:46:05.558Z,18.50
2019-06-08T09:51:29.695Z,18.40
2019-06-08T09:54:12.567Z,18.30
2019-06-08T09:56:53.701Z,18.20
2019-06-08T09:59:34.324Z,18.20
2019-06-08T10:02:14.860Z,18.30
2019-06-08T10:04:56.684Z,18.40
2019-06-08T10:07:38.825Z,18.60
2019-06-08T10:10:19.847Z,18.80
2019-06-08T10:13:03.715Z,18.80
2019-06-08T10:15:42.803Z,18.60
2019-06-08T10:18:23.463Z,18.50
2019-06-08T10:20:52.148Z,18.50
2019-06-08T10:23:30.775Z,18.50
2019-06-08T10:25:51.633Z,18.50
2019-06-08T10:28:21.715Z,18.40
2019-06-08T10:30:50.520Z,18.40
2019-06-08T10:33:19.100Z,18.30
2019-06-08T10:35:48.230Z,18.30
2019-06-08T10:38:18.166Z,18.20
2019-06-08T10:41:11.974Z,18.10
2019-06-08T10:43:33.199Z,18.30
2019-06-08T10:46:08.485Z,19.00
2019-06-08T10:48:32.123Z,19.60
2019-06-08T10:51:03.757Z,20.10
2019-06-08T10:53:44.985Z,20.30
2019-06-08T10:56:03.430Z,20.40
2019-06-08T10:58:32.291Z,20.70
2019-06-08T11:01:04.092Z,21.00
2019-06-08T11:03:31.532Z,21.20
2019-06-08T11:06:01.313Z,21.50
2019-06-08T11:08:30.912Z,21.90
2019-06-08T11:11:01.191Z,21.90
2019-06-08T11:13:30.295Z,22.00
2019-06-08T11:16:00.959Z,22.30
2019-06-08T11:18:29.483Z,22.10
2019-06-08T11:20:59.839Z,21.60
2019-06-08T11:23:29.007Z,21.20
2019-06-08T11:25:59.488Z,21.00
2019-06-08T11:28:28.451Z,20.80
2019-06-08T11:30:57.282Z,20.90
2019-06-08T11:33:30.257Z,20.80
2019-06-08T11:35:58.167Z,20.90
2019-06-08T11:38:28.847Z,20.90
2019-06-08T11:41:00.912Z,20.90
2019-06-08T11:43:28.714Z,21.30
2019-06-08T11:45:58.455Z,21.90
2019-06-08T11:48:28.546Z,22.50
2019-06-08T11:50:58.524Z,22.70
2019-06-08T11:53:28.815Z,22.90
2019-06-08T11:55:58.602Z,23.00
2019-06-08T11:58:28.344Z,22.90
2019-06-08T12:01:01.809Z,22.70
2019-06-08T12:03:30.798Z,22.30
2019-06-08T12:05:59.490Z,21.80
2019-06-08T12:08:28.724Z,22.10
2019-06-08T12:11:01.248Z,22.70
2019-06-08T12:13:27.952Z,23.30
2019-06-08T12:15:58.756Z,23.60
2019-06-08T12:18:27.039Z,23.50
2019-06-08T12:20:55.590Z,23.20
2019-06-08T12:23:24.111Z,22.70
2019-06-08T12:25:53.809Z,22.40
2019-06-08T12:28:22.383Z,22.90
2019-06-08T12:30:50.939Z,23.30
2019-06-08T12:33:22.652Z,23.60
2019-06-08T12:35:49.846Z,23.30
2019-06-08T12:38:19.139Z,22.90
2019-06-08T12:40:48.548Z,22.90
2019-06-08T12:43:18.957Z,23.20
2019-06-08T12:45:47.986Z,23.60
2019-06-08T12:48:20.392Z,24.10
2019-06-08T12:50:47.829Z,24.30
2019-06-08T12:53:20.663Z,24.70
2019-06-08T12:55:47.675Z,24.80
2019-06-08T12:58:19.941Z,24.30
2019-06-08T13:00:48.321Z,23.80
2019-06-08T13:03:18.685Z,23.50
2019-06-08T13:05:47.850Z,23.40
2019-06-08T13:08:20.088Z,23.30
2019-06-08T13:10:48.168Z,23.00
2019-06-08T13:13:23.511Z,23.00
2019-06-08T13:15:48.363Z,23.20
2019-06-08T13:18:19.863Z,23.30
2019-06-08T13:20:51.676Z,23.60
2019-06-08T13:23:21.147Z,23.70
2019-06-08T13:25:49.700Z,23.20
2019-06-08T13:28:23.624Z,22.70
2019-06-08T13:30:48.605Z,22.20
2019-06-08T13:33:18.298Z,22.00
2019-06-08T13:35:48.041Z,21.90
2019-06-08T13:38:19.190Z,21.90
2019-06-08T13:40:48.387Z,21.80
2019-06-08T13:43:19.762Z,21.80
2019-06-08T13:45:48.571Z,21.80
2019-06-08T13:48:19.021Z,21.70
2019-06-08T13:50:49.985Z,21.80
2019-06-08T13:53:25.550Z,22.30
2019-06-08T13:55:56.344Z,23.00
2019-06-08T13:58:26.761Z,23.60
2019-06-08T14:00:51.379Z,23.50
2019-06-08T14:03:21.407Z,23.20
2019-06-08T14:05:50.298Z,22.90
2019-06-08T14:08:20.899Z,22.90
2019-06-08T14:10:49.479Z,22.80
2019-06-08T14:13:22.441Z,22.80
2019-06-08T14:15:48.843Z,22.90
2019-06-08T14:18:21.278Z,22.50
2019-06-08T14:20:48.491Z,22.20
2019-06-08T14:23:19.639Z,21.90
2019-06-08T14:25:56.410Z,21.70
2019-06-08T14:28:19.836Z,21.70
2019-06-08T14:30:49.674Z,21.60
2019-06-08T14:33:24.097Z,21.40
2019-06-08T14:35:48.542Z,21.50
2019-06-08T14:38:22.489Z,21.70
2019-06-08T14:40:47.616Z,21.90
2019-06-08T14:43:17.746Z,22.00
2019-06-08T14:45:46.786Z,22.00
2019-06-08T14:48:15.602Z,21.80
2019-06-08T14:50:44.704Z,21.70
2019-06-08T14:53:13.891Z,21.80
2019-06-08T14:55:42.679Z,22.00
2019-06-08T14:58:11.235Z,21.80
2019-06-08T15:00:40.836Z,21.80
2019-06-08T15:03:09.747Z,21.70
2019-06-08T15:05:38.306Z,21.50
2019-06-08T15:08:08.370Z,21.30
2019-06-08T15:10:38.502Z,21.30
2019-06-08T15:13:07.896Z,21.30
2019-06-08T15:15:38.088Z,21.30
2019-06-08T15:18:08.394Z,21.50
2019-06-08T15:20:38.468Z,22.10
2019-06-08T15:23:08.283Z,22.60
2019-06-08T15:25:38.722Z,23.00
2019-06-08T15:28:08.207Z,23.50
2019-06-08T15:30:38.069Z,24.00
2019-06-08T15:33:07.359Z,24.20
2019-06-08T15:35:37.767Z,23.80
2019-06-08T15:38:08.398Z,23.20
2019-06-08T15:40:37.867Z,22.80
2019-06-08T15:43:08.624Z,22.80
2019-06-08T15:45:37.057Z,23.20
2019-06-08T15:48:07.944Z,23.00
2019-06-08T15:50:37.855Z,22.70
2019-06-08T15:53:08.437Z,22.70
2019-06-08T15:55:38.333Z,22.80
2019-06-08T15:58:08.949Z,23.10
2019-06-08T16:00:38.124Z,23.50
2019-06-08T16:03:06.784Z,23.40
2019-06-08T16:05:35.359Z,23.00
2019-06-08T16:08:03.930Z,22.70
2019-06-08T16:10:32.577Z,22.60
2019-06-08T16:13:01.447Z,22.20
2019-06-08T16:15:30.991Z,22.10
2019-06-08T16:17:59.698Z,22.50
2019-06-08T16:20:29.406Z,22.40
2019-06-08T16:22:58.184Z,22.60
2019-06-08T16:25:27.856Z,23.00
2019-06-08T16:27:59.873Z,23.40
2019-06-08T16:30:27.160Z,23.40
2019-06-08T16:32:55.883Z,23.60
2019-06-08T16:35:24.483Z,23.60
2019-06-08T16:37:53.391Z,23.80
2019-06-08T16:40:21.948Z,23.60
2019-06-08T16:42:50.842Z,23.40
2019-06-08T16:45:19.471Z,23.40
2019-06-08T16:47:48.015Z,23.30
2019-06-08T16:50:24.369Z,23.30
2019-06-08T16:52:47.566Z,23.20
2019-06-08T16:55:16.128Z,23.10
2019-06-08T16:57:44.701Z,22.90
2019-06-08T17:02:43.650Z,22.30
2019-06-08T17:05:13.215Z,22.10
2019-06-08T17:07:41.794Z,21.90
2019-06-08T17:10:10.374Z,21.80
2019-06-08T17:12:39.170Z,21.70
2019-06-08T17:15:08.006Z,21.50
2019-06-08T17:17:36.712Z,21.40
2019-06-08T17:20:05.454Z,21.40
2019-06-08T17:22:34.670Z,21.20
2019-06-08T17:25:03.242Z,21.20
2019-06-08T17:27:32.625Z,21.00
2019-06-08T17:30:08.084Z,20.90
2019-06-08T17:32:31.838Z,20.80
2019-06-08T17:35:00.755Z,20.80
2019-06-08T17:37:29.306Z,20.70
2019-06-08T17:39:57.902Z,20.70
2019-06-08T17:42:26.483Z,20.60
2019-06-08T17:44:55.067Z,20.60
2019-06-08T17:47:24.827Z,20.50
2019-06-08T17:49:54.219Z,20.40
2019-06-08T17:52:22.935Z,20.30
2019-06-08T17:54:51.866Z,20.20
2019-06-08T17:57:20.675Z,20.20
2019-06-08T17:59:49.231Z,20.20
2019-06-08T18:02:27.321Z,20.20
2019-06-08T18:04:48.650Z,20.20
2019-06-08T18:07:17.251Z,20.20
2019-06-08T18:09:48.318Z,20.00
2019-06-08T18:12:18.317Z,20.00
2019-06-08T18:14:47.962Z,20.00
2019-06-08T18:17:17.718Z,20.00
2019-06-08T18:19:49.524Z,20.00
2019-06-08T18:22:18.698Z,20.00
2019-06-08T18:24:48.028Z,19.90
2019-06-08T18:27:18.154Z,19.90
2019-06-08T18:29:48.668Z,19.80
2019-06-08T18:32:18.133Z,19.80
2019-06-08T18:34:48.045Z,19.80
2019-06-08T18:37:18.012Z,19.70
2019-06-08T18:39:49.046Z,19.60
2019-06-08T18:42:17.927Z,19.60
2019-06-08T18:44:48.563Z,19.50
2019-06-08T18:47:17.863Z,19.40
2019-06-08T18:49:48.394Z,19.30
2019-06-08T18:52:17.621Z,19.20
2019-06-08T18:54:49.264Z,19.10
2019-06-08T18:57:17.677Z,19.00
2019-06-08T18:59:50.645Z,19.00
2019-06-08T19:02:17.992Z,18.90
2019-06-08T19:04:47.761Z,18.90
2019-06-08T19:07:17.535Z,18.80
2019-06-08T19:09:48.077Z,18.80
2019-06-08T19:12:19.656Z,18.60
2019-06-08T19:14:48.044Z,18.60
2019-06-08T19:17:18.031Z,18.50
2019-06-08T19:19:51.623Z,18.40
2019-06-08T19:22:18.985Z,18.40
2019-06-08T19:24:50.403Z,18.30
2019-06-08T19:27:18.584Z,18.30
2019-06-08T19:29:49.975Z,18.20
2019-06-08T19:32:17.917Z,18.10
2019-06-08T19:34:52.273Z,18.00
2019-06-08T19:37:17.274Z,18.00
2019-06-08T19:39:47.891Z,17.90
2019-06-08T19:42:17.529Z,17.80
2019-06-08T19:44:55.779Z,17.70
2019-06-08T19:47:17.607Z,17.70
2019-06-08T19:49:47.754Z,17.60
2019-06-08T19:52:18.305Z,17.50
2019-06-08T19:54:51.916Z,17.50
2019-06-08T19:57:17.579Z,17.40
2019-06-08T19:59:47.592Z,17.30
2019-06-08T20:02:17.700Z,17.20
2019-06-08T20:04:46.878Z,17.10
2019-06-08T20:07:17.525Z,17.10
2019-06-08T20:09:48.181Z,17.00
2019-06-08T20:12:18.682Z,16.90
2019-06-08T20:14:48.402Z,16.90
2019-06-08T20:17:19.410Z,16.80
2019-06-08T20:19:50.664Z,16.70
2019-06-08T20:22:18.802Z,16.70
2019-06-08T20:24:52.071Z,16.60
2019-06-08T20:27:18.239Z,16.60
2019-06-08T20:29:48.253Z,16.50
2019-06-08T20:32:18.056Z,16.50
2019-06-08T20:34:49.337Z,16.40
2019-06-08T20:37:17.878Z,16.20
2019-06-08T20:39:59.427Z,16.10
2019-06-08T20:42:17.440Z,16.10
2019-06-08T20:44:48.691Z,16.00
2019-06-08T20:47:17.863Z,16.00
2019-06-08T20:49:49.358Z,15.90
2019-06-08T20:52:18.643Z,15.90
2019-06-08T20:54:49.244Z,15.80
2019-06-08T20:57:17.599Z,15.80
2019-06-08T20:59:48.128Z,15.70
2019-06-08T21:02:17.806Z,15.70
2019-06-08T21:04:49.136Z,15.70
2019-06-08T21:07:17.481Z,15.60
2019-06-08T21:09:49.609Z,15.60
2019-06-08T21:12:17.762Z,15.50
2019-06-08T21:14:48.942Z,15.50
2019-06-08T21:17:18.035Z,15.40
2019-06-08T21:19:46.775Z,15.40
2019-06-08T21:22:18.236Z,15.40
2019-06-08T21:24:49.994Z,15.30
2019-06-08T21:27:17.364Z,15.30
2019-06-08T21:29:53.692Z,15.20
2019-06-08T21:32:17.710Z,15.20
2019-06-08T21:34:49.134Z,15.20
2019-06-08T21:37:18.623Z,15.10
2019-06-08T21:39:50.465Z,15.00
2019-06-08T21:42:17.895Z,15.00
2019-06-08T21:44:48.854Z,14.90
2019-06-08T21:47:16.828Z,14.80
2019-06-08T21:49:47.528Z,14.80
2019-06-08T21:52:17.938Z,14.70
2019-06-08T21:54:46.065Z,14.60
2019-06-08T21:57:14.639Z,14.50
2019-06-08T21:59:43.235Z,14.50
2019-06-08T22:02:11.855Z,14.40
2019-06-08T22:04:40.401Z,14.40
2019-06-08T22:07:09.310Z,14.40
2019-06-08T22:09:38.786Z,14.40
2019-06-08T22:12:07.373Z,14.30
2019-06-08T22:14:37.848Z,14.30
2019-06-08T22:17:07.863Z,14.30
2019-06-08T22:19:38.034Z,14.20
2019-06-08T22:22:08.367Z,14.20
2019-06-08T22:24:38.438Z,14.10
2019-06-08T22:27:07.318Z,14.10
2019-06-08T22:29:38.177Z,14.00
2019-06-08T22:32:07.603Z,14.00
2019-06-08T22:34:37.179Z,14.00
2019-06-08T22:37:08.356Z,13.90
2019-06-08T22:39:37.376Z,13.80
2019-06-08T22:42:08.359Z,13.80
2019-06-08T22:44:37.637Z,13.80
2019-06-08T22:47:08.140Z,13.80
2019-06-08T22:49:38.422Z,13.80
2019-06-08T22:52:08.227Z,13.70
2019-06-08T22:54:38.332Z,13.70
2019-06-08T22:57:08.099Z,13.70
2019-06-08T22:59:37.299Z,13.70
2019-06-08T23:02:08.954Z,13.70
2019-06-08T23:04:36.746Z,13.70
2019-06-08T23:07:06.947Z,13.80
2019-06-08T23:09:37.327Z,13.80
2019-06-08T23:12:09.176Z,13.70
2019-06-08T23:14:37.660Z,13.60
2019-06-08T23:17:08.452Z,13.50
2019-06-08T23:19:37.387Z,13.50
2019-06-08T23:22:08.327Z,13.50
2019-06-08T23:24:38.229Z,13.50
2019-06-08T23:27:07.184Z,13.50
2019-06-08T23:29:38.155Z,13.50
2019-06-08T23:32:11.298Z,13.50
2019-06-08T23:34:38.316Z,13.40
2019-06-08T23:37:12.482Z,13.40
2019-06-08T23:39:37.732Z,13.30
2019-06-08T23:42:06.606Z,13.30
2019-06-08T23:44:37.625Z,13.30
2019-06-08T23:47:06.195Z,13.20
2019-06-08T23:49:34.787Z,13.20
2019-06-08T23:52:04.308Z,13.20
2019-06-08T23:54:33.683Z,13.20
2019-06-08T23:57:02.882Z,13.10
2019-06-08T23:59:31.675Z,13.10
